Appleby, United Kingdom
Current Conditions -  °F | °C
As of 3:50 AM on Thursday 23 Oct 2014 (Local Time) from EGNJ Reporting Station
Clear Clear  
Wind Chill: 10°   Ceiling: Unl
Heat Index: 10°   Visibility: 6mi
Dew Point:   Wind: 15mph
Humidity: 87%   Direction: 200°SSW
Pressure: 30.03"   Gusts: NA
Location:  53.62°N, 0.57°W
Report Text: EGNJ 230250Z AUTO 20013KT 9999 NCD 10/08 Q1017
Loading
Personal Weather Stations






























Interactive Weather Map
Tropical Storm Tracking
New forecast layout! Learn more

10-Day Weather Forecast

Advertisements
Track Severe Weather on mobile